Time;durP1;ratioP1;P1;durP2;ratioP2;P2;SDS_P1;SDS_P2;PMS_P1;PMS_P2;Temp;Humidity;BMP_temperature;BMP_pressure;BME280_temperature;BME280_humidity;BME280_pressure;Samples;Min_cycle;Max_cycle;Signal;HPM_P1;HPM_P2
2023/01/17 00:01:45;;;;;;;3.27;1.67;;;5.20;99.90;;;;;;5072541;28;20260;-75
2023/01/17 00:09:52;;;;;;;2.30;1.23;;;5.20;99.90;;;;;;5067129;28;20335;-74
2023/01/17 00:12:19;;;;;;;1.93;1.40;;;5.10;99.90;;;;;;5067482;28;20225;-73
2023/01/17 00:14:46;;;;;;;2.30;1.33;;;5.10;99.90;;;;;;5069263;28;20171;-75
2023/01/17 00:17:11;;;;;;;2.27;1.57;;;5.10;99.90;;;;;;5055892;28;20206;-73
2023/01/17 01:34:23;;;;;;;2.60;1.63;;;4.60;99.90;;;;;;5069473;28;20216;-74
2023/01/17 01:36:49;;;;;;;4.00;1.43;;;4.60;99.90;;;;;;5051406;28;20206;-75
2023/01/17 01:39:14;;;;;;;1.83;1.47;;;4.50;99.90;;;;;;5050032;28;20689;-74
2023/01/17 01:41:40;;;;;;;2.10;1.60;;;4.50;99.90;;;;;;5073353;28;20633;-74
2023/01/17 01:45:01;;;;;;;3.27;1.30;;;4.50;99.90;;;;;;5084983;28;20206;-75
2023/01/17 01:47:35;;;;;;;2.10;1.33;;;4.60;99.90;;;;;;4993183;28;20218;-74
2023/01/17 01:50:06;;;;;;;1.93;1.43;;;4.60;99.90;;;;;;5041295;28;20337;-75
2023/01/17 01:52:35;;;;;;;4.13;1.97;;;4.60;99.90;;;;;;5074907;28;20223;-75
2023/01/17 01:55:06;;;;;;;2.33;1.40;;;4.60;99.90;;;;;;5061531;28;20242;-72
2023/01/17 01:57:37;;;;;;;3.63;1.80;;;4.60;99.90;;;;;;5051440;28;20251;-75
2023/01/17 02:03:29;;;;;;;3.23;1.60;;;4.60;99.90;;;;;;5069851;28;20229;-76
2023/01/17 02:06:01;;;;;;;2.57;1.33;;;4.60;99.90;;;;;;5070755;28;20176;-72
2023/01/17 02:08:45;;;;;;;3.77;1.50;;;4.60;99.90;;;;;;5079132;28;20233;-74
2023/01/17 02:11:11;;;;;;;2.20;1.50;;;4.60;99.90;;;;;;5072625;28;20279;-74
2023/01/17 02:13:37;;;;;;;2.80;1.83;;;4.50;99.90;;;;;;5073294;28;20206;-74
2023/01/17 02:16:30;;;;;;;3.73;1.50;;;4.60;99.90;;;;;;5059907;28;20244;-75
2023/01/17 02:22:47;;;;;;;4.70;2.13;;;4.60;99.90;;;;;;5078292;28;20338;-74
2023/01/17 02:25:45;;;;;;;2.43;1.63;;;4.60;99.90;;;;;;5059889;28;20214;-72
2023/01/17 02:28:51;;;;;;;3.23;1.97;;;4.70;99.90;;;;;;4996073;28;20220;-73
2023/01/17 02:31:29;;;;;;;2.73;1.53;;;4.60;99.90;;;;;;5068453;28;20703;-72
2023/01/17 02:34:07;;;;;;;3.43;1.97;;;4.60;99.90;;;;;;5052407;28;20207;-73
2023/01/17 02:36:45;;;;;;;2.47;1.70;;;4.60;99.90;;;;;;5055979;28;20212;-72
2023/01/17 02:39:18;;;;;;;3.10;1.70;;;4.60;99.90;;;;;;5052180;28;20205;-73
2023/01/17 02:41:49;;;;;;;2.90;1.87;;;4.60;99.90;;;;;;5076614;28;20247;-72
2023/01/17 02:44:18;;;;;;;3.00;1.80;;;4.60;99.90;;;;;;5071745;28;20308;-72
2023/01/17 02:46:50;;;;;;;4.77;1.90;;;4.60;99.90;;;;;;5074585;28;20210;-72
2023/01/17 02:49:19;;;;;;;2.77;1.67;;;4.70;99.90;;;;;;5066908;28;20265;-73
2023/01/17 02:51:59;;;;;;;4.57;2.20;;;4.70;99.90;;;;;;5070374;28;20214;-73
2023/01/17 02:54:33;;;;;;;3.40;1.83;;;4.80;99.90;;;;;;5068179;28;20224;-73
2023/01/17 02:57:27;;;;;;;2.97;1.80;;;4.90;99.90;;;;;;5069350;28;20212;-73
2023/01/17 03:00:00;;;;;;;2.60;1.77;;;4.90;99.90;;;;;;5052008;28;20226;-72
2023/01/17 03:02:26;;;;;;;3.80;1.37;;;4.90;99.90;;;;;;5076352;28;20627;-72
2023/01/17 03:04:59;;;;;;;3.13;1.83;;;4.90;99.90;;;;;;5071709;28;20203;-72
2023/01/17 03:07:27;;;;;;;2.23;1.63;;;4.90;99.90;;;;;;5068512;28;20210;-76
2023/01/17 03:09:58;;;;;;;2.67;1.67;;;5.00;99.90;;;;;;5071498;28;20218;-74
2023/01/17 03:12:29;;;;;;;3.00;1.70;;;5.00;99.90;;;;;;5070451;28;20218;-74
2023/01/17 03:14:55;;;;;;;2.87;1.47;;;5.10;99.90;;;;;;5054991;28;20177;-72
2023/01/17 03:17:28;;;;;;;4.57;1.77;;;5.00;99.90;;;;;;5073115;28;20221;-73
2023/01/17 03:19:53;;;;;;;2.57;1.73;;;5.10;99.90;;;;;;5072147;28;20213;-76
2023/01/17 03:22:19;;;;;;;3.00;1.63;;;5.10;99.90;;;;;;5069750;28;20216;-74
2023/01/17 03:24:45;;;;;;;2.53;1.50;;;5.10;99.90;;;;;;5071932;28;20224;-74
2023/01/17 03:27:10;;;;;;;2.10;1.30;;;5.00;99.90;;;;;;5073428;28;20261;-74
2023/01/17 03:29:36;;;;;;;2.30;1.27;;;5.00;99.90;;;;;;5075059;28;20578;-74
2023/01/17 03:32:01;;;;;;;3.23;1.40;;;5.10;99.90;;;;;;5071232;28;20213;-74
2023/01/17 03:34:28;;;;;;;2.03;1.13;;;5.10;99.90;;;;;;5059728;28;20211;-76
2023/01/17 03:36:53;;;;;;;1.67;0.90;;;5.10;99.90;;;;;;5050849;28;20212;-73
2023/01/17 03:39:19;;;;;;;1.50;0.90;;;5.20;99.90;;;;;;5048599;28;20199;-76
2023/01/17 03:41:45;;;;;;;1.63;1.00;;;5.10;99.90;;;;;;5040180;28;20191;-77
2023/01/17 03:44:10;;;;;;;1.33;0.90;;;5.20;99.90;;;;;;5048150;28;20939;-76
2023/01/17 03:46:36;;;;;;;1.60;0.80;;;5.20;99.90;;;;;;5065554;28;20685;-74
2023/01/17 03:49:01;;;;;;;1.43;0.80;;;5.20;99.90;;;;;;5063861;28;20313;-74
2023/01/17 03:51:27;;;;;;;1.87;1.00;;;5.20;99.90;;;;;;5064473;28;20225;-74
2023/01/17 03:53:53;;;;;;;2.23;1.00;;;5.20;99.90;;;;;;5050887;28;20186;-74
2023/01/17 03:56:18;;;;;;;2.20;1.07;;;5.30;99.90;;;;;;5064846;28;20624;-74
2023/01/17 03:58:44;;;;;;;1.53;0.70;;;5.20;99.90;;;;;;5064311;28;20222;-75
2023/01/17 04:01:10;;;;;;;1.37;0.90;;;5.30;99.90;;;;;;5064511;28;20281;-74
2023/01/17 04:03:36;;;;;;;1.60;0.80;;;5.30;99.90;;;;;;5063358;28;20272;-77
2023/01/17 04:06:02;;;;;;;1.60;1.00;;;5.30;99.90;;;;;;5045273;28;20208;-74
2023/01/17 04:08:28;;;;;;;1.40;0.83;;;5.30;99.90;;;;;;5044523;28;20171;-74
2023/01/17 04:10:53;;;;;;;0.83;0.70;;;5.30;99.90;;;;;;5059189;28;20221;-74
2023/01/17 04:13:19;;;;;;;2.10;1.00;;;5.30;99.90;;;;;;5078721;28;20229;-76
2023/01/17 04:15:47;;;;;;;1.33;0.70;;;5.30;99.90;;;;;;5072136;28;20216;-76
2023/01/17 04:18:16;;;;;;;0.90;0.70;;;5.40;99.90;;;;;;5077415;28;20182;-73
2023/01/17 04:20:41;;;;;;;0.70;0.70;;;5.40;99.90;;;;;;5074343;28;20207;-71
2023/01/17 04:23:07;;;;;;;1.70;0.90;;;5.40;99.90;;;;;;5075919;28;20687;-74
2023/01/17 04:25:33;;;;;;;0.80;0.80;;;5.40;99.90;;;;;;5077701;28;20211;-73
2023/01/17 04:28:00;;;;;;;1.10;0.80;;;5.30;99.90;;;;;;5078780;28;20719;-75
2023/01/17 04:30:27;;;;;;;1.13;0.77;;;5.40;99.90;;;;;;5070811;28;20798;-74
2023/01/17 04:32:53;;;;;;;1.07;0.60;;;5.40;99.90;;;;;;5068121;28;20198;-72
2023/01/17 04:35:18;;;;;;;2.97;0.90;;;5.40;99.90;;;;;;5063194;28;20685;-73
2023/01/17 04:37:44;;;;;;;0.90;0.73;;;5.40;99.90;;;;;;5062569;28;20242;-70
2023/01/17 04:40:11;;;;;;;1.20;0.70;;;5.40;99.90;;;;;;5045709;28;20260;-74
2023/01/17 04:42:37;;;;;;;1.17;0.80;;;5.40;99.90;;;;;;5042119;28;20244;-72
2023/01/17 04:45:03;;;;;;;1.97;0.70;;;5.40;99.90;;;;;;5065326;28;20201;-74
2023/01/17 04:47:28;;;;;;;1.37;0.80;;;5.40;99.90;;;;;;5063959;28;20616;-75
2023/01/17 04:49:54;;;;;;;0.90;0.77;;;5.50;99.90;;;;;;5063477;28;20356;-74
2023/01/17 04:52:20;;;;;;;1.17;1.00;;;5.50;99.90;;;;;;5065643;28;20250;-72
2023/01/17 04:54:50;;;;;;;1.00;0.77;;;5.50;99.90;;;;;;5060321;28;20241;-72
2023/01/17 04:57:16;;;;;;;1.33;0.97;;;5.40;99.90;;;;;;5063884;28;20243;-73
2023/01/17 04:59:43;;;;;;;0.73;0.70;;;5.40;99.90;;;;;;5064067;28;20280;-72
2023/01/17 05:02:09;;;;;;;1.23;0.73;;;5.40;99.90;;;;;;5060437;28;20978;-72
2023/01/17 05:04:35;;;;;;;0.50;0.50;;;5.40;99.90;;;;;;5062603;28;20203;-72
2023/01/17 05:07:00;;;;;;;1.10;0.60;;;5.40;99.90;;;;;;5049125;28;20203;-72
2023/01/17 05:09:26;;;;;;;0.73;0.53;;;5.40;99.90;;;;;;5049050;28;20815;-73
2023/01/17 05:11:52;;;;;;;0.93;0.60;;;5.40;99.90;;;;;;5063905;28;20222;-73
2023/01/17 05:14:17;;;;;;;0.70;0.70;;;5.40;99.90;;;;;;5067488;28;20209;-73
2023/01/17 05:16:43;;;;;;;0.80;0.63;;;5.50;99.90;;;;;;5067041;28;20210;-73
2023/01/17 05:19:08;;;;;;;0.63;0.60;;;5.50;99.90;;;;;;5054085;28;20333;-75
2023/01/17 05:21:34;;;;;;;1.03;0.70;;;5.50;99.90;;;;;;5065291;28;20207;-74
2023/01/17 05:24:00;;;;;;;0.53;0.53;;;5.50;99.90;;;;;;5071647;28;20171;-73
2023/01/17 05:26:25;;;;;;;0.97;0.70;;;5.50;99.90;;;;;;5052515;28;20691;-73
2023/01/17 05:28:51;;;;;;;0.87;0.60;;;5.60;99.90;;;;;;5062077;28;20207;-74
2023/01/17 05:31:16;;;;;;;0.97;0.87;;;5.60;99.90;;;;;;5068869;28;20214;-73
2023/01/17 05:33:42;;;;;;;1.40;0.80;;;5.50;99.90;;;;;;5064657;28;20284;-74
2023/01/17 05:36:08;;;;;;;0.70;0.70;;;5.50;99.90;;;;;;5064645;28;20216;-73
2023/01/17 05:38:34;;;;;;;1.47;0.87;;;5.50;99.90;;;;;;5070046;28;20170;-72
2023/01/17 05:41:00;;;;;;;1.53;0.70;;;5.60;99.90;;;;;;5048054;28;20213;-74
2023/01/17 05:43:27;;;;;;;0.90;0.50;;;5.60;99.90;;;;;;5052967;28;20252;-74
2023/01/17 05:45:53;;;;;;;1.00;0.90;;;5.60;99.90;;;;;;5046967;28;20299;-73
2023/01/17 05:48:19;;;;;;;1.63;1.07;;;5.60;99.90;;;;;;5071135;28;20262;-74
2023/01/17 05:50:45;;;;;;;1.73;1.03;;;5.60;99.90;;;;;;5046760;28;20252;-73
2023/01/17 05:53:13;;;;;;;1.50;0.97;;;5.60;99.90;;;;;;5053007;28;20207;-73
2023/01/17 05:55:39;;;;;;;1.10;1.00;;;5.60;99.90;;;;;;5070259;28;20738;-76
2023/01/17 05:58:07;;;;;;;1.10;0.70;;;5.70;99.90;;;;;;5050446;28;20648;-74
2023/01/17 06:00:33;;;;;;;0.87;0.70;;;5.60;99.90;;;;;;5048239;28;20211;-80
2023/01/17 06:02:59;;;;;;;0.90;0.80;;;5.60;99.90;;;;;;5071317;28;20186;-74
2023/01/17 06:05:26;;;;;;;0.83;0.83;;;5.70;99.90;;;;;;5068457;28;20210;-76
2023/01/17 06:07:52;;;;;;;1.00;0.90;;;5.60;99.90;;;;;;5070640;28;20680;-74
2023/01/17 06:10:19;;;;;;;1.33;0.83;;;5.60;99.90;;;;;;5066270;28;20215;-75
2023/01/17 06:12:46;;;;;;;1.00;0.83;;;5.70;99.90;;;;;;5070648;28;20230;-73
2023/01/17 06:15:14;;;;;;;0.80;0.80;;;5.60;99.90;;;;;;5070026;28;20171;-73
2023/01/17 06:17:39;;;;;;;1.43;0.90;;;5.60;99.90;;;;;;5073158;28;20171;-72
2023/01/17 06:20:11;;;;;;;1.27;1.17;;;5.60;99.90;;;;;;5052375;28;20203;-74
2023/01/17 06:22:37;;;;;;;1.00;0.90;;;5.60;99.90;;;;;;5067859;28;20207;-75
2023/01/17 06:25:03;;;;;;;2.00;1.00;;;5.70;99.90;;;;;;5070236;28;20203;-73
2023/01/17 06:27:28;;;;;;;1.20;0.87;;;5.60;99.90;;;;;;5051099;28;20207;-75
2023/01/17 06:29:54;;;;;;;1.70;1.10;;;5.70;99.90;;;;;;5067894;28;20215;-73
2023/01/17 06:32:19;;;;;;;1.10;1.00;;;5.60;99.90;;;;;;5065991;28;20282;-73
2023/01/17 06:34:45;;;;;;;2.27;0.83;;;5.60;99.90;;;;;;5047849;28;20356;-74
2023/01/17 06:37:11;;;;;;;1.30;1.00;;;5.60;99.90;;;;;;5070133;28;20579;-75
2023/01/17 06:39:36;;;;;;;1.13;1.00;;;5.60;99.90;;;;;;5050429;28;20215;-74
2023/01/17 06:42:02;;;;;;;1.00;0.83;;;5.50;99.90;;;;;;5070214;28;20185;-74
2023/01/17 06:44:28;;;;;;;0.67;0.60;;;5.60;99.90;;;;;;5068933;28;20193;-74
2023/01/17 06:46:53;;;;;;;1.00;0.90;;;5.60;99.90;;;;;;5069200;28;20738;-79
2023/01/17 06:49:19;;;;;;;1.43;1.03;;;5.50;99.90;;;;;;5048930;28;20222;-74
2023/01/17 06:51:45;;;;;;;1.10;0.83;;;5.60;99.90;;;;;;5069035;28;20317;-74
2023/01/17 06:54:10;;;;;;;1.10;0.97;;;5.70;99.90;;;;;;5051350;28;20670;-74
2023/01/17 06:56:37;;;;;;;1.10;0.90;;;5.60;99.90;;;;;;5069974;28;20175;-76
2023/01/17 06:59:02;;;;;;;1.07;0.97;;;5.60;99.90;;;;;;5069438;28;20317;-73
2023/01/17 07:01:29;;;;;;;1.60;1.50;;;5.60;99.90;;;;;;5069822;28;20289;-76
2023/01/17 07:03:55;;;;;;;1.43;1.07;;;5.60;99.90;;;;;;5049076;28;20656;-75
2023/01/17 07:06:22;;;;;;;1.40;1.23;;;5.60;99.90;;;;;;5069803;28;20238;-74
2023/01/17 07:08:48;;;;;;;1.43;1.20;;;5.60;99.90;;;;;;5066459;28;20183;-73
2023/01/17 07:11:14;;;;;;;2.50;1.40;;;5.60;99.90;;;;;;5070376;28;20285;-73
2023/01/17 07:13:40;;;;;;;1.93;1.40;;;5.60;99.90;;;;;;5050439;28;20203;-74
2023/01/17 07:16:06;;;;;;;1.87;1.30;;;5.60;99.90;;;;;;5046853;28;20199;-74
2023/01/17 07:18:33;;;;;;;1.30;1.20;;;5.50;99.90;;;;;;5054378;28;20209;-73
2023/01/17 07:20:59;;;;;;;1.40;1.30;;;5.50;99.90;;;;;;5069732;28;20210;-74
2023/01/17 07:23:25;;;;;;;1.20;1.10;;;5.50;99.90;;;;;;5068014;28;20221;-73
2023/01/17 07:25:52;;;;;;;2.70;1.60;;;5.60;99.90;;;;;;5067696;28;20273;-73
2023/01/17 07:28:18;;;;;;;1.33;1.23;;;5.60;99.90;;;;;;5066010;28;20278;-74
2023/01/17 07:30:44;;;;;;;4.40;1.40;;;5.60;99.90;;;;;;5070569;28;20207;-73
2023/01/17 07:33:10;;;;;;;1.40;1.20;;;5.60;99.90;;;;;;5047014;28;20217;-74
2023/01/17 07:35:36;;;;;;;37.20;4.20;;;5.60;99.90;;;;;;5067303;28;20175;-73
2023/01/17 07:38:02;;;;;;;1.90;1.50;;;5.60;99.90;;;;;;5048316;28;20210;-73
2023/01/17 07:40:28;;;;;;;1.77;1.43;;;5.60;99.90;;;;;;5050488;28;20667;-73
2023/01/17 07:43:00;;;;;;;1.37;1.20;;;5.60;99.90;;;;;;5048270;28;20285;-73
2023/01/17 07:45:26;;;;;;;2.90;1.70;;;5.50;99.90;;;;;;5068824;28;20693;-72
2023/01/17 07:47:52;;;;;;;1.57;1.30;;;5.50;99.90;;;;;;5067053;28;20257;-73
2023/01/17 07:50:18;;;;;;;1.30;1.20;;;5.60;99.90;;;;;;5067959;28;20290;-73
2023/01/17 07:52:48;;;;;;;2.17;1.40;;;5.60;99.90;;;;;;5049559;28;20306;-73
2023/01/17 07:55:14;;;;;;;4.33;3.10;;;5.60;99.90;;;;;;5063345;28;20198;-74
2023/01/17 07:57:40;;;;;;;1.63;1.43;;;5.60;99.90;;;;;;5067836;28;20806;-73
2023/01/17 08:00:06;;;;;;;2.33;1.30;;;5.70;99.90;;;;;;5068484;28;20652;-74
2023/01/17 08:02:32;;;;;;;1.57;1.40;;;5.70;99.90;;;;;;5065429;28;20274;-74
2023/01/17 08:04:57;;;;;;;2.63;1.77;;;5.80;99.90;;;;;;5067371;28;20360;-74
2023/01/17 08:07:23;;;;;;;1.57;1.37;;;6.00;99.90;;;;;;5068507;28;20682;-74
2023/01/17 08:09:49;;;;;;;1.40;1.30;;;6.00;99.90;;;;;;5049811;28;20266;-74
2023/01/17 08:12:15;;;;;;;3.70;1.40;;;5.80;99.90;;;;;;5050250;28;20259;-74
2023/01/17 08:14:41;;;;;;;2.20;1.63;;;5.70;99.90;;;;;;5067153;28;20179;-73
2023/01/17 08:17:12;;;;;;;1.63;1.50;;;5.70;99.90;;;;;;5051599;28;20207;-75
2023/01/17 08:19:38;;;;;;;1.90;1.30;;;5.80;99.90;;;;;;5049969;28;20207;-74
2023/01/17 08:22:04;;;;;;;1.40;1.30;;;5.80;99.90;;;;;;5065521;28;20782;-75
2023/01/17 08:24:29;;;;;;;1.97;1.30;;;5.80;99.90;;;;;;5050253;28;20238;-75
2023/01/17 08:26:55;;;;;;;1.47;1.10;;;5.80;99.90;;;;;;5050794;28;20174;-74
2023/01/17 08:29:22;;;;;;;1.93;1.30;;;5.80;99.90;;;;;;5066352;28;20219;-74
2023/01/17 08:31:48;;;;;;;1.43;1.33;;;5.80;99.90;;;;;;5066948;28;20239;-74
2023/01/17 08:34:14;;;;;;;1.43;1.13;;;5.80;99.90;;;;;;5067991;28;20207;-74
2023/01/17 08:36:44;;;;;;;1.97;1.10;;;5.70;99.90;;;;;;5049460;28;20281;-72
2023/01/17 08:39:11;;;;;;;1.53;1.40;;;5.70;99.90;;;;;;5048554;28;20198;-74
2023/01/17 08:41:37;;;;;;;1.67;1.10;;;5.80;99.90;;;;;;5050028;28;20171;-74
2023/01/17 08:44:04;;;;;;;1.43;1.17;;;5.90;99.90;;;;;;5068177;28;20227;-74
2023/01/17 08:46:29;;;;;;;1.97;1.10;;;6.00;99.90;;;;;;5049730;28;20577;-74
2023/01/17 08:48:57;;;;;;;1.13;1.00;;;6.00;99.90;;;;;;5065387;28;20206;-74
2023/01/17 08:51:25;;;;;;;5.17;1.30;;;6.00;99.90;;;;;;5048511;28;20222;-74
2023/01/17 08:53:52;;;;;;;1.53;1.13;;;6.00;99.90;;;;;;5050608;28;20558;-74
2023/01/17 08:56:18;;;;;;;1.50;1.20;;;5.90;99.90;;;;;;5067798;28;20202;-74
2023/01/17 08:58:43;;;;;;;1.87;1.17;;;5.90;99.90;;;;;;5067345;28;20643;-74
2023/01/17 09:01:09;;;;;;;1.33;1.20;;;5.90;99.90;;;;;;5048720;28;20234;-74
2023/01/17 09:03:35;;;;;;;1.20;1.10;;;6.00;99.90;;;;;;5067794;28;20238;-73
2023/01/17 09:06:06;;;;;;;3.03;1.30;;;6.10;99.90;;;;;;5066700;28;20190;-74
2023/01/17 09:08:33;;;;;;;1.23;0.83;;;6.10;99.90;;;;;;5065775;28;20173;-74
2023/01/17 09:11:06;;;;;;;1.20;1.10;;;6.10;99.90;;;;;;5066985;28;20249;-74
2023/01/17 09:13:32;;;;;;;0.90;0.90;;;6.30;99.90;;;;;;5063584;28;20222;-73
2023/01/17 09:15:58;;;;;;;1.23;1.03;;;6.30;99.90;;;;;;5064980;28;20198;-73
2023/01/17 09:18:28;;;;;;;0.93;0.87;;;6.30;99.90;;;;;;5052570;28;20268;-74
2023/01/17 09:20:57;;;;;;;2.83;1.77;;;6.30;99.90;;;;;;5069371;28;20796;-74
2023/01/17 09:23:26;;;;;;;4.30;2.93;;;6.30;99.90;;;;;;5049415;28;20594;-74
2023/01/17 09:25:53;;;;;;;1.90;1.33;;;6.50;99.90;;;;;;5066451;28;20207;-74
2023/01/17 09:28:20;;;;;;;1.00;0.70;;;6.70;99.90;;;;;;5050779;28;20676;-73
2023/01/17 09:30:46;;;;;;;1.27;0.90;;;6.80;99.90;;;;;;5066458;28;20211;-74
2023/01/17 09:33:11;;;;;;;2.47;0.80;;;6.60;99.90;;;;;;5066100;28;20546;-74
2023/01/17 09:35:37;;;;;;;1.33;0.70;;;6.50;99.90;;;;;;5049820;28;20180;-74
2023/01/17 09:38:03;;;;;;;0.60;0.50;;;6.50;99.90;;;;;;5062938;28;20223;-74
2023/01/17 09:40:28;;;;;;;3.13;0.73;;;6.40;99.90;;;;;;5069764;28;20712;-74
2023/01/17 09:43:03;;;;;;;0.63;0.47;;;6.30;99.90;;;;;;5048734;28;20976;-74
2023/01/17 09:45:31;;;;;;;2.63;0.73;;;6.40;99.90;;;;;;5067615;28;20528;-74
2023/01/17 09:47:59;;;;;;;1.00;0.77;;;6.30;99.90;;;;;;5067698;28;20186;-74
2023/01/17 09:50:32;;;;;;;1.60;0.80;;;6.30;99.90;;;;;;5067149;28;20268;-74
2023/01/17 09:53:01;;;;;;;0.83;0.60;;;6.40;99.90;;;;;;5046724;28;20703;-75
2023/01/17 09:55:39;;;;;;;1.17;0.67;;;6.40;99.90;;;;;;5064911;28;20261;-74
2023/01/17 09:58:19;;;;;;;1.93;0.80;;;6.40;99.90;;;;;;5047317;28;20563;-73
2023/01/17 10:01:08;;;;;;;1.17;0.50;;;6.40;99.90;;;;;;5063701;28;20627;-72
2023/01/17 10:03:52;;;;;;;1.33;0.67;;;6.40;99.90;;;;;;5066354;28;21053;-72
2023/01/17 10:06:23;;;;;;;3.00;0.90;;;6.50;99.90;;;;;;5069971;28;20787;-73
2023/01/17 10:09:04;;;;;;;2.50;0.90;;;6.60;99.90;;;;;;5069952;28;20654;-73
2023/01/17 10:11:37;;;;;;;2.20;0.80;;;6.60;99.90;;;;;;5062321;28;20264;-74
2023/01/17 10:14:12;;;;;;;3.00;0.90;;;6.60;99.90;;;;;;5066758;28;20206;-73
2023/01/17 10:16:49;;;;;;;0.93;0.60;;;6.50;99.90;;;;;;5068359;28;20218;-73
2023/01/17 10:19:18;;;;;;;2.60;0.70;;;6.60;99.90;;;;;;5053218;28;20214;-74
2023/01/17 10:21:57;;;;;;;1.17;0.87;;;6.60;99.90;;;;;;5068236;28;20249;-73
2023/01/17 10:24:26;;;;;;;0.60;0.43;;;6.40;99.90;;;;;;5051612;28;20206;-73
2023/01/17 10:26:55;;;;;;;0.90;0.60;;;6.40;99.90;;;;;;5069056;28;20175;-73
2023/01/17 10:29:26;;;;;;;0.60;0.57;;;6.10;99.90;;;;;;5069851;28;20210;-73
2023/01/17 10:31:58;;;;;;;5.63;0.83;;;5.90;99.90;;;;;;5068800;28;20344;-72
2023/01/17 10:34:45;;;;;;;1.33;0.93;;;6.00;99.90;;;;;;5069842;28;20695;-74
2023/01/17 10:37:24;;;;;;;0.53;0.43;;;6.10;99.90;;;;;;5070236;28;20859;-72
2023/01/17 10:39:53;;;;;;;1.13;0.70;;;6.10;99.90;;;;;;5069385;28;20694;-73
2023/01/17 10:42:31;;;;;;;0.83;0.60;;;5.90;99.90;;;;;;5052021;28;20182;-73
2023/01/17 10:45:27;;;;;;;0.60;0.60;;;6.00;99.90;;;;;;5069609;28;20266;-73
2023/01/17 10:48:08;;;;;;;2.93;0.63;;;5.80;99.90;;;;;;5048134;28;20211;-73
2023/01/17 10:50:52;;;;;;;1.03;1.00;;;5.80;99.90;;;;;;5046490;28;20229;-73
2023/01/17 10:53:44;;;;;;;1.10;0.60;;;5.80;99.90;;;;;;5069536;28;20653;-73
2023/01/17 10:56:13;;;;;;;0.83;0.60;;;5.80;99.90;;;;;;5013358;28;20199;-73
2023/01/17 10:58:39;;;;;;;0.73;0.70;;;5.80;99.90;;;;;;5051678;28;20211;-74
2023/01/17 11:01:16;;;;;;;3.17;0.60;;;5.70;99.90;;;;;;5068999;28;20277;-74
2023/01/17 11:03:44;;;;;;;1.67;0.70;;;5.70;99.90;;;;;;5066387;28;20206;-72
2023/01/17 11:06:25;;;;;;;1.17;0.60;;;5.60;99.90;;;;;;5068796;28;20171;-74
2023/01/17 11:08:56;;;;;;;4.10;0.87;;;5.60;99.90;;;;;;5048703;28;20171;-73
2023/01/17 11:11:33;;;;;;;2.30;0.60;;;5.70;99.90;;;;;;5050034;28;20210;-73
2023/01/17 11:14:14;;;;;;;4.53;0.70;;;5.70;99.90;;;;;;5045229;28;20229;-71
2023/01/17 11:16:41;;;;;;;2.47;0.93;;;5.70;99.90;;;;;;5066409;28;20202;-73
2023/01/17 11:19:31;;;;;;;1.53;0.60;;;5.70;99.90;;;;;;5068941;28;20203;-73
2023/01/17 11:22:05;;;;;;;1.07;0.83;;;5.60;99.90;;;;;;5048778;28;20267;-73
2023/01/17 11:24:36;;;;;;;1.20;0.50;;;5.40;99.90;;;;;;5047160;28;20199;-73
2023/01/17 11:27:07;;;;;;;2.07;0.80;;;5.30;99.90;;;;;;5048705;28;20187;-74
2023/01/17 11:29:38;;;;;;;1.53;0.70;;;5.30;99.90;;;;;;5069485;28;20187;-73
2023/01/17 11:32:22;;;;;;;2.17;0.90;;;5.30;99.90;;;;;;5066172;28;20293;-74
2023/01/17 11:35:08;;;;;;;2.77;0.80;;;5.40;99.90;;;;;;5065291;28;20574;-73
2023/01/17 11:37:35;;;;;;;3.33;1.00;;;5.30;99.90;;;;;;5065267;28;20787;-74
2023/01/17 11:40:17;;;;;;;1.50;0.60;;;5.20;99.90;;;;;;5050122;28;20655;-73
2023/01/17 11:42:42;;;;;;;2.57;1.23;;;4.90;99.90;;;;;;5047105;28;20572;-74
2023/01/17 11:45:29;;;;;;;3.83;1.40;;;4.70;99.90;;;;;;5050068;28;20171;-74
2023/01/17 11:48:06;;;;;;;4.17;0.80;;;4.70;99.90;;;;;;5066444;28;20172;-73
2023/01/17 11:50:37;;;;;;;3.63;0.73;;;4.80;99.90;;;;;;5050418;28;20213;-74
2023/01/17 11:53:43;;;;;;;1.17;1.07;;;5.00;99.90;;;;;;5068620;28;20267;-76
2023/01/17 11:56:19;;;;;;;1.10;0.70;;;5.40;99.90;;;;;;4984306;28;20225;-73
2023/01/17 11:58:46;;;;;;;2.03;0.90;;;5.80;99.90;;;;;;4970112;28;20224;-74
2023/01/17 12:01:36;;;;;;;3.73;2.50;;;6.00;99.90;;;;;;5026496;28;20305;-73
2023/01/17 12:04:23;;;;;;;1.60;1.00;;;6.10;99.90;;;;;;5067662;28;20214;-72
2023/01/17 12:07:13;;;;;;;2.33;1.60;;;6.00;99.90;;;;;;5047207;28;20207;-72
2023/01/17 12:10:08;;;;;;;1.80;0.77;;;5.90;99.90;;;;;;5066887;28;20218;-74
2023/01/17 12:16:31;;;;;;;2.03;1.43;;;6.00;99.90;;;;;;5068267;28;20244;-73
2023/01/17 12:19:17;;;;;;;1.70;1.20;;;6.00;99.90;;;;;;5061818;28;20213;-72
2023/01/17 12:22:20;;;;;;;2.47;1.00;;;6.20;99.90;;;;;;5068376;28;20210;-72
2023/01/17 12:25:01;;;;;;;1.10;0.83;;;6.20;99.90;;;;;;5065714;28;20225;-73
2023/01/17 12:27:49;;;;;;;2.47;1.00;;;6.30;99.90;;;;;;5065570;28;20602;-72
2023/01/17 12:30:26;;;;;;;4.67;0.83;;;6.30;99.90;;;;;;5047686;28;20214;-73
2023/01/17 12:33:27;;;;;;;1.30;0.77;;;6.30;99.90;;;;;;5050300;28;20214;-73
2023/01/17 12:36:01;;;;;;;1.03;0.70;;;6.30;99.90;;;;;;5050464;28;20305;-72
2023/01/17 12:38:38;;;;;;;3.27;1.03;;;6.40;99.90;;;;;;5068111;28;20207;-73
2023/01/17 12:41:04;;;;;;;5.30;1.20;;;6.30;99.90;;;;;;5069114;28;20213;-73
2023/01/17 12:43:35;;;;;;;4.20;1.07;;;6.40;99.90;;;;;;5069026;28;20207;-73
2023/01/17 12:46:10;;;;;;;5.27;1.57;;;6.40;99.90;;;;;;5065914;28;20281;-72
2023/01/17 12:48:39;;;;;;;10.87;1.50;;;6.40;99.90;;;;;;5068011;28;20217;-70
2023/01/17 12:51:17;;;;;;;6.13;2.30;;;6.30;99.90;;;;;;5065334;28;20203;-73
2023/01/17 12:53:57;;;;;;;5.87;1.27;;;6.30;99.90;;;;;;5047434;28;20228;-72
2023/01/17 12:56:33;;;;;;;1.47;1.00;;;6.20;99.90;;;;;;5061388;28;20672;-74
2023/01/17 12:59:10;;;;;;;1.50;0.87;;;6.00;99.90;;;;;;5049498;28;20570;-73
2023/01/17 13:01:41;;;;;;;4.17;0.90;;;6.00;99.90;;;;;;5067617;28;20571;-70
2023/01/17 13:04:29;;;;;;;3.67;1.10;;;6.00;99.90;;;;;;5049190;28;20210;-73
2023/01/17 13:06:57;;;;;;;1.53;0.70;;;6.00;99.90;;;;;;5067189;28;20210;-71
2023/01/17 13:09:24;;;;;;;1.30;0.80;;;5.90;99.90;;;;;;5064959;28;20265;-73
2023/01/17 13:12:12;;;;;;;4.23;1.30;;;5.90;99.90;;;;;;5068078;28;20198;-76
2023/01/17 13:14:38;;;;;;;1.30;0.97;;;6.20;99.90;;;;;;5068417;28;20230;-74
2023/01/17 13:17:27;;;;;;;6.33;1.30;;;6.30;99.90;;;;;;5066686;28;20676;-76
2023/01/17 13:22:26;;;;;;;1.40;0.80;;;6.20;99.90;;;;;;5039118;28;20251;-76
2023/01/17 13:25:06;;;;;;;7.70;1.43;;;6.10;99.90;;;;;;5035028;28;20208;-76
2023/01/17 13:27:44;;;;;;;5.27;1.23;;;6.10;99.90;;;;;;5030563;28;20208;-76
2023/01/17 13:30:42;;;;;;;4.43;0.90;;;6.00;99.90;;;;;;5031568;28;20216;-77
2023/01/17 13:33:33;;;;;;;1.80;0.83;;;5.90;99.90;;;;;;5028012;28;20257;-75
2023/01/17 13:36:28;;;;;;;3.90;1.10;;;5.70;99.90;;;;;;5025664;28;20187;-76
2023/01/17 13:39:11;;;;;;;2.07;1.10;;;5.60;99.90;;;;;;5032662;28;20200;-76
2023/01/17 13:41:55;;;;;;;3.83;0.97;;;5.50;99.90;;;;;;5031338;28;20305;-76
2023/01/17 13:44:26;;;;;;;1.70;0.90;;;5.50;99.90;;;;;;5031458;28;20248;-76
2023/01/17 13:47:05;;;;;;;3.07;1.30;;;5.50;99.90;;;;;;5030888;28;20220;-76
2023/01/17 13:49:40;;;;;;;4.40;1.27;;;5.60;99.90;;;;;;5039199;28;20831;-76
2023/01/17 13:52:18;;;;;;;3.70;1.13;;;5.70;99.90;;;;;;5026224;28;20274;-75
2023/01/17 13:54:45;;;;;;;2.33;1.30;;;5.70;99.90;;;;;;5034052;28;20643;-76
2023/01/17 13:57:28;;;;;;;4.37;1.30;;;5.70;99.90;;;;;;5030285;28;20287;-74
2023/01/17 13:59:55;;;;;;;4.93;1.43;;;5.70;99.90;;;;;;5031617;28;20200;-76
2023/01/17 14:02:30;;;;;;;5.63;1.63;;;5.70;99.90;;;;;;5027975;28;20212;-73
2023/01/17 14:05:08;;;;;;;5.57;1.17;;;5.70;99.90;;;;;;5032436;28;20212;-77
2023/01/17 14:07:48;;;;;;;2.63;1.10;;;5.80;99.90;;;;;;5043920;28;20201;-74
2023/01/17 14:10:46;;;;;;;2.30;0.90;;;5.80;99.90;;;;;;5032133;28;20215;-76
2023/01/17 14:13:30;;;;;;;3.93;0.97;;;5.80;99.90;;;;;;5023952;28;20385;-75
2023/01/17 14:15:56;;;;;;;3.63;1.13;;;5.90;99.90;;;;;;5030696;28;20330;-76
2023/01/17 14:18:36;;;;;;;3.73;1.20;;;5.90;99.90;;;;;;5031467;28;20587;-74
2023/01/17 14:21:06;;;;;;;4.57;0.90;;;6.00;99.90;;;;;;5029141;28;20227;-76
2023/01/17 14:23:47;;;;;;;2.60;1.17;;;6.00;99.90;;;;;;5048986;28;20187;-76
2023/01/17 14:26:25;;;;;;;2.33;1.00;;;5.90;99.90;;;;;;5030782;28;20208;-78
2023/01/17 14:28:51;;;;;;;3.50;1.10;;;5.90;99.90;;;;;;5034574;28;20215;-76
2023/01/17 14:31:19;;;;;;;3.00;1.03;;;5.80;99.90;;;;;;5034118;28;20216;-76
2023/01/17 14:33:44;;;;;;;5.83;1.20;;;5.80;99.90;;;;;;5033401;28;20224;-76
2023/01/17 14:36:29;;;;;;;4.27;1.33;;;5.70;99.90;;;;;;5033245;28;20177;-74
2023/01/17 14:38:55;;;;;;;6.20;1.47;;;5.70;99.90;;;;;;5032162;28;20176;-76
2023/01/17 14:41:24;;;;;;;2.27;1.10;;;5.60;99.90;;;;;;5031966;28;20220;-76
2023/01/17 14:43:51;;;;;;;2.67;0.90;;;5.50;99.90;;;;;;5033908;28;20216;-75
2023/01/17 14:46:22;;;;;;;2.57;1.07;;;5.40;99.90;;;;;;5032761;28;20232;-75
2023/01/17 14:48:49;;;;;;;4.70;1.00;;;5.40;99.90;;;;;;5031650;28;20235;-76
2023/01/17 14:51:21;;;;;;;2.53;1.00;;;5.30;99.90;;;;;;5032657;28;20207;-76
2023/01/17 14:53:57;;;;;;;7.50;1.47;;;5.20;99.90;;;;;;5033525;28;20599;-77